Time;durP1;ratioP1;P1;durP2;ratioP2;P2;SDS_P1;SDS_P2;PMS_P1;PMS_P2;Temp;Humidity;BMP_temperature;BMP_pressure;BME280_temperature;BME280_humidity;BME280_pressure;Samples;Min_cycle;Max_cycle;Signal;HPM_P1;HPM_P2
2022/03/26 00:00:00;;;;;;;27.55;21.00;;;10.40;99.90;;;;;;4960842;28;20055;-72
2022/03/26 00:02:27;;;;;;;29.73;22.50;;;10.50;99.90;;;;;;4960645;28;20101;-72
2022/03/26 00:04:53;;;;;;;26.65;21.65;;;10.70;99.90;;;;;;4958605;28;20039;-71
2022/03/26 00:07:19;;;;;;;25.98;21.42;;;10.90;99.90;;;;;;4958448;28;20027;-71
2022/03/26 00:09:44;;;;;;;24.00;21.00;;;11.00;99.90;;;;;;4960229;28;20404;-71
2022/03/26 00:12:10;;;;;;;25.60;21.08;;;11.00;99.90;;;;;;4960561;28;20058;-72
2022/03/26 00:14:36;;;;;;;29.05;23.98;;;11.10;99.90;;;;;;4960437;28;20449;-71
2022/03/26 00:17:02;;;;;;;29.73;24.38;;;11.30;99.90;;;;;;4959739;28;20033;-71
2022/03/26 00:19:27;;;;;;;33.67;26.98;;;11.40;99.90;;;;;;4957144;28;20023;-72
2022/03/26 00:21:53;;;;;;;32.22;25.52;;;11.40;99.90;;;;;;4959395;28;20043;-72
2022/03/26 00:24:19;;;;;;;29.77;22.90;;;11.50;99.90;;;;;;4959934;28;20138;-71
2022/03/26 00:26:45;;;;;;;28.92;23.10;;;11.40;99.90;;;;;;4959866;28;20113;-71
2022/03/26 00:29:11;;;;;;;28.65;23.33;;;11.40;99.90;;;;;;4959295;28;20128;-72
2022/03/26 00:31:37;;;;;;;28.15;22.33;;;11.30;99.90;;;;;;4956549;29;20031;-72
2022/03/26 00:34:07;;;;;;;27.15;23.58;;;11.30;99.90;;;;;;4959848;28;20034;-72
2022/03/26 00:36:33;;;;;;;29.55;24.17;;;11.40;99.90;;;;;;4959643;28;20031;-72
2022/03/26 00:38:59;;;;;;;26.48;23.23;;;11.40;99.90;;;;;;4960265;28;20042;-72
2022/03/26 00:41:25;;;;;;;27.88;22.60;;;11.50;99.90;;;;;;4959726;28;20027;-71
2022/03/26 00:43:51;;;;;;;26.90;22.20;;;11.50;99.90;;;;;;4957919;28;20548;-71
2022/03/26 00:46:17;;;;;;;24.70;20.27;;;11.40;99.90;;;;;;4958197;28;20098;-72
2022/03/26 00:48:43;;;;;;;21.98;18.38;;;11.20;99.90;;;;;;4959578;28;20035;-72
2022/03/26 00:51:09;;;;;;;22.08;18.58;;;10.90;99.90;;;;;;4959069;28;20031;-72
2022/03/26 00:53:35;;;;;;;22.10;19.40;;;10.80;99.90;;;;;;4959901;28;20027;-71
2022/03/26 00:56:01;;;;;;;23.13;18.80;;;10.60;99.90;;;;;;4958765;28;20027;-71
2022/03/26 00:58:26;;;;;;;21.88;18.50;;;10.50;99.90;;;;;;4957072;28;20489;-72
2022/03/26 01:00:52;;;;;;;23.77;19.73;;;10.40;99.90;;;;;;4959349;28;20027;-72
2022/03/26 01:03:18;;;;;;;24.50;20.15;;;10.30;99.90;;;;;;4959240;28;20135;-72
2022/03/26 01:05:44;;;;;;;22.35;18.77;;;10.20;99.90;;;;;;4958620;28;20043;-71
2022/03/26 01:08:10;;;;;;;24.00;19.83;;;10.30;99.90;;;;;;4959920;28;20037;-71
2022/03/26 01:10:36;;;;;;;25.23;21.05;;;10.20;99.90;;;;;;4938071;29;20428;-72
2022/03/26 01:13:03;;;;;;;23.33;20.17;;;10.20;99.90;;;;;;4959333;28;20015;-71
2022/03/26 01:15:29;;;;;;;25.10;21.13;;;10.10;99.90;;;;;;4941655;29;20039;-71
2022/03/26 01:17:55;;;;;;;24.27;21.42;;;10.10;99.90;;;;;;4959083;28;20066;-71
2022/03/26 01:20:21;;;;;;;24.63;21.45;;;10.10;99.90;;;;;;4959208;28;20035;-71
2022/03/26 01:22:47;;;;;;;27.55;22.73;;;10.10;99.90;;;;;;4956365;28;20031;-71
2022/03/26 01:25:13;;;;;;;26.70;22.45;;;10.10;99.90;;;;;;4957812;28;20111;-72
2022/03/26 01:27:39;;;;;;;26.55;22.60;;;10.00;99.90;;;;;;4959040;28;20566;-72
2022/03/26 01:30:06;;;;;;;25.80;22.77;;;9.90;99.90;;;;;;4941974;29;20054;-71
2022/03/26 01:32:32;;;;;;;28.95;23.48;;;9.90;99.90;;;;;;4959012;28;20066;-71
2022/03/26 01:34:58;;;;;;;26.40;22.10;;;10.00;99.90;;;;;;4957351;28;20448;-72
2022/03/26 01:37:24;;;;;;;26.58;22.02;;;10.00;99.90;;;;;;4956517;28;20024;-71
2022/03/26 01:39:51;;;;;;;25.77;22.33;;;10.00;99.90;;;;;;4958661;28;20042;-72
2022/03/26 01:42:17;;;;;;;27.98;22.00;;;10.00;99.90;;;;;;4958542;28;20037;-72
2022/03/26 01:44:44;;;;;;;28.05;21.42;;;10.10;99.90;;;;;;4958863;28;20114;-71
2022/03/26 01:47:10;;;;;;;24.70;22.05;;;10.10;99.90;;;;;;4958915;28;20030;-71
2022/03/26 01:49:35;;;;;;;28.90;24.02;;;10.10;99.90;;;;;;4954997;29;20408;-72
2022/03/26 01:52:03;;;;;;;29.83;25.13;;;10.20;99.90;;;;;;4941325;29;20094;-71
2022/03/26 01:54:30;;;;;;;31.02;26.70;;;10.10;99.90;;;;;;4958589;28;20078;-73
2022/03/26 01:56:57;;;;;;;33.25;27.20;;;10.00;99.90;;;;;;4958449;28;20058;-72
2022/03/26 01:59:27;;;;;;;34.13;26.33;;;9.90;99.90;;;;;;4958962;28;20026;-72
2022/03/26 02:01:53;;;;;;;29.45;25.92;;;9.80;99.90;;;;;;4956115;28;20622;-72
2022/03/26 02:04:19;;;;;;;33.22;26.90;;;9.80;99.90;;;;;;4956495;28;20070;-72
2022/03/26 02:06:44;;;;;;;31.50;25.02;;;9.80;99.90;;;;;;4958723;28;20035;-72
2022/03/26 02:09:12;;;;;;;32.38;25.77;;;9.70;99.90;;;;;;4958273;28;20032;-71
2022/03/26 02:11:41;;;;;;;29.67;24.35;;;9.80;99.90;;;;;;4958424;28;20030;-72
2022/03/26 02:14:08;;;;;;;30.83;26.40;;;9.90;99.90;;;;;;4942948;28;20520;-71
2022/03/26 02:16:36;;;;;;;32.22;24.85;;;9.90;99.90;;;;;;4950053;28;20032;-71
2022/03/26 02:19:06;;;;;;;31.70;26.88;;;10.00;99.90;;;;;;4957980;28;20385;-71
2022/03/26 02:21:37;;;;;;;33.75;27.17;;;9.90;99.90;;;;;;4958019;28;20035;-72
2022/03/26 02:24:05;;;;;;;32.70;27.13;;;9.90;99.90;;;;;;4957828;28;20062;-72
2022/03/26 02:26:31;;;;;;;33.90;26.10;;;9.80;99.90;;;;;;4957968;28;20035;-71
2022/03/26 02:29:05;;;;;;;31.90;26.70;;;9.80;99.90;;;;;;4956638;28;22727;-72
2022/03/26 02:31:30;;;;;;;32.60;27.50;;;9.80;99.90;;;;;;4937344;29;20132;-71
2022/03/26 02:33:56;;;;;;;34.95;27.55;;;9.70;99.90;;;;;;4957369;28;20106;-71
2022/03/26 02:36:22;;;;;;;32.17;27.58;;;9.70;99.90;;;;;;4958144;28;20038;-71
2022/03/26 02:38:47;;;;;;;32.67;26.45;;;9.70;99.90;;;;;;4957700;28;20094;-71
2022/03/26 02:41:13;;;;;;;31.40;27.33;;;9.70;99.90;;;;;;4957689;28;20030;-72
2022/03/26 02:43:39;;;;;;;36.45;27.15;;;9.50;99.90;;;;;;4954252;28;20433;-71
2022/03/26 02:46:05;;;;;;;33.10;26.48;;;9.50;99.90;;;;;;4956607;28;20043;-71
2022/03/26 02:48:31;;;;;;;33.17;27.58;;;9.60;99.90;;;;;;4957632;28;20290;-71
2022/03/26 02:50:57;;;;;;;31.40;27.35;;;9.60;99.90;;;;;;4957559;28;20034;-71
2022/03/26 02:53:23;;;;;;;35.58;29.15;;;9.50;99.90;;;;;;4940259;28;20026;-72
2022/03/26 02:55:50;;;;;;;34.55;28.48;;;9.40;99.90;;;;;;4955612;28;20082;-71
2022/03/26 02:58:16;;;;;;;37.33;30.58;;;9.50;99.90;;;;;;4955713;28;20028;-71
2022/03/26 03:00:41;;;;;;;37.67;31.08;;;9.60;99.90;;;;;;4957292;28;20106;-71
2022/03/26 03:03:08;;;;;;;42.30;31.83;;;9.80;99.90;;;;;;4957097;28;20031;-71
2022/03/26 03:05:34;;;;;;;37.58;30.02;;;9.90;99.90;;;;;;4957192;28;20126;-72
2022/03/26 03:08:00;;;;;;;39.83;32.83;;;10.00;99.90;;;;;;4956549;28;20034;-71
2022/03/26 03:10:27;;;;;;;38.38;32.97;;;10.00;99.90;;;;;;4954607;28;20027;-71
2022/03/26 03:12:53;;;;;;;39.90;32.78;;;10.00;99.90;;;;;;4956786;28;20050;-71
2022/03/26 03:15:19;;;;;;;34.90;31.05;;;10.10;99.90;;;;;;4957143;28;20063;-71
2022/03/26 03:17:47;;;;;;;37.47;30.65;;;10.10;99.90;;;;;;4957012;28;20023;-71
2022/03/26 03:20:14;;;;;;;37.17;30.83;;;10.30;99.90;;;;;;4957341;28;20097;-71
2022/03/26 03:22:41;;;;;;;37.00;29.65;;;10.30;99.90;;;;;;4953248;28;20035;-71
2022/03/26 03:25:08;;;;;;;32.40;27.60;;;10.30;99.90;;;;;;4957026;28;20146;-72
2022/03/26 03:27:35;;;;;;;33.97;29.42;;;10.30;99.90;;;;;;4957191;28;20070;-71
2022/03/26 03:30:01;;;;;;;34.30;28.40;;;10.30;99.90;;;;;;4956706;28;20485;-71
2022/03/26 03:32:26;;;;;;;35.85;28.35;;;10.20;99.90;;;;;;4957070;28;20023;-71
2022/03/26 03:34:52;;;;;;;34.40;28.25;;;10.20;99.90;;;;;;4954751;28;20042;-71
2022/03/26 03:37:19;;;;;;;33.08;27.77;;;10.20;99.90;;;;;;4955530;28;20072;-72
2022/03/26 03:39:44;;;;;;;33.90;27.05;;;10.20;99.90;;;;;;4956651;28;20496;-72
2022/03/26 03:42:10;;;;;;;36.90;27.92;;;10.20;99.90;;;;;;4956738;28;20028;-72
2022/03/26 03:44:36;;;;;;;34.20;26.35;;;10.30;99.90;;;;;;4956792;28;20400;-71
2022/03/26 03:47:03;;;;;;;30.02;25.45;;;10.30;99.90;;;;;;4956333;28;20166;-72
2022/03/26 03:49:31;;;;;;;33.25;25.80;;;10.40;99.90;;;;;;4953716;28;20023;-71
2022/03/26 03:52:01;;;;;;;34.20;25.63;;;10.40;99.90;;;;;;4956657;28;20027;-71
2022/03/26 03:54:27;;;;;;;34.25;25.95;;;10.30;99.90;;;;;;4956683;28;20492;-71
2022/03/26 03:56:53;;;;;;;31.77;26.15;;;10.20;99.90;;;;;;4956741;28;20023;-72
2022/03/26 03:59:18;;;;;;;29.77;25.50;;;10.20;99.90;;;;;;4939364;28;20029;-71
2022/03/26 04:01:44;;;;;;;33.85;24.67;;;10.20;99.90;;;;;;4953474;28;20028;-71
2022/03/26 04:04:10;;;;;;;29.48;23.33;;;10.20;99.90;;;;;;4956397;28;20036;-71
2022/03/26 04:06:36;;;;;;;26.45;23.05;;;10.20;99.90;;;;;;4956500;28;20035;-72
2022/03/26 04:09:02;;;;;;;29.88;23.75;;;10.20;99.90;;;;;;4939401;29;20027;-71
2022/03/26 04:11:28;;;;;;;30.25;23.88;;;10.20;99.90;;;;;;4957114;28;20037;-71
2022/03/26 04:13:54;;;;;;;29.30;23.05;;;10.10;99.90;;;;;;4954279;28;20035;-71
2022/03/26 04:16:21;;;;;;;29.80;25.02;;;10.20;99.90;;;;;;4954991;28;20552;-71
2022/03/26 04:18:48;;;;;;;32.63;25.77;;;10.10;99.90;;;;;;4956487;28;20019;-71
2022/03/26 04:21:14;;;;;;;28.42;25.23;;;10.00;99.90;;;;;;4956426;28;20031;-71
2022/03/26 04:23:40;;;;;;;34.30;25.08;;;10.00;99.90;;;;;;4956464;28;20538;-71
2022/03/26 04:26:07;;;;;;;34.65;26.83;;;10.00;99.90;;;;;;4941123;28;20460;-71
2022/03/26 04:28:33;;;;;;;33.38;27.52;;;10.00;99.90;;;;;;4952798;28;20182;-71
2022/03/26 04:30:59;;;;;;;32.20;26.63;;;10.00;99.90;;;;;;4956437;28;20031;-71
2022/03/26 04:33:25;;;;;;;34.90;27.33;;;9.90;99.90;;;;;;4956390;28;20035;-71
2022/03/26 04:35:50;;;;;;;32.50;26.75;;;10.00;99.90;;;;;;4956505;28;20023;-71
2022/03/26 04:38:16;;;;;;;32.75;26.33;;;9.90;99.90;;;;;;4956701;28;20050;-71
2022/03/26 04:40:42;;;;;;;31.10;26.13;;;9.90;99.90;;;;;;4956011;28;20122;-72
2022/03/26 04:43:08;;;;;;;31.17;24.25;;;9.80;99.90;;;;;;4959351;28;20030;-71
2022/03/26 04:45:33;;;;;;;32.38;23.98;;;9.80;99.90;;;;;;4959751;28;20175;-71
2022/03/26 04:48:00;;;;;;;30.23;22.70;;;9.80;99.90;;;;;;4942272;29;20024;-71
2022/03/26 04:50:26;;;;;;;29.10;24.02;;;9.70;99.90;;;;;;4960169;28;20023;-71
2022/03/26 04:52:52;;;;;;;27.83;23.05;;;9.60;99.90;;;;;;4957683;28;20105;-71
2022/03/26 04:55:18;;;;;;;30.98;22.02;;;9.70;99.90;;;;;;4954141;29;20035;-72
2022/03/26 04:57:51;;;;;;;27.05;21.77;;;9.70;99.90;;;;;;4959285;28;20110;-71
2022/03/26 05:00:18;;;;;;;27.80;21.90;;;9.70;99.90;;;;;;4959459;28;20094;-71
2022/03/26 05:02:44;;;;;;;27.30;23.63;;;9.70;99.90;;;;;;4959418;28;20449;-72
2022/03/26 05:05:12;;;;;;;34.40;24.90;;;9.60;99.90;;;;;;4959749;28;20035;-71
2022/03/26 05:07:45;;;;;;;30.65;25.15;;;9.60;99.90;;;;;;4938706;29;20035;-71
2022/03/26 05:10:11;;;;;;;28.75;24.52;;;9.50;99.90;;;;;;4957143;28;20544;-71
2022/03/26 05:12:37;;;;;;;29.75;23.88;;;9.40;99.90;;;;;;4958903;28;20055;-71
2022/03/26 05:15:03;;;;;;;34.08;24.85;;;9.50;99.90;;;;;;4959189;28;20032;-71
2022/03/26 05:17:29;;;;;;;30.85;24.45;;;9.50;99.90;;;;;;4959077;28;20027;-71
2022/03/26 05:19:54;;;;;;;34.05;25.60;;;9.50;99.90;;;;;;4957472;28;20034;-72
2022/03/26 05:22:20;;;;;;;29.95;24.88;;;9.40;99.90;;;;;;4957511;28;20031;-71
2022/03/26 05:24:46;;;;;;;30.70;26.05;;;9.50;99.90;;;;;;4959213;28;20099;-71
2022/03/26 05:27:12;;;;;;;30.80;24.75;;;9.50;99.90;;;;;;4958694;28;20038;-71
2022/03/26 05:29:37;;;;;;;30.88;24.58;;;9.50;99.90;;;;;;4958853;28;20047;-71
2022/03/26 05:32:04;;;;;;;32.58;26.23;;;9.50;99.90;;;;;;4958288;28;20035;-71
2022/03/26 05:34:29;;;;;;;33.28;26.63;;;9.30;99.90;;;;;;4956404;28;20039;-71
2022/03/26 05:36:55;;;;;;;33.85;26.95;;;9.30;99.90;;;;;;4958883;28;20027;-71
2022/03/26 05:39:21;;;;;;;33.28;27.58;;;9.40;99.90;;;;;;4958671;28;20031;-72
2022/03/26 05:41:47;;;;;;;36.58;28.63;;;9.40;99.90;;;;;;4958504;28;20035;-71
2022/03/26 05:44:13;;;;;;;34.38;27.83;;;9.30;99.90;;;;;;4958935;28;20047;-71
2022/03/26 05:46:39;;;;;;;32.63;27.50;;;9.40;99.90;;;;;;4954644;28;20175;-71
2022/03/26 05:49:04;;;;;;;34.83;27.52;;;9.40;99.90;;;;;;4959109;28;20090;-71
2022/03/26 05:51:30;;;;;;;34.22;27.65;;;9.30;99.90;;;;;;4957481;28;20035;-71
2022/03/26 05:53:56;;;;;;;31.70;27.20;;;9.30;99.90;;;;;;4958494;28;20027;-71
2022/03/26 05:56:22;;;;;;;32.38;26.83;;;9.40;99.90;;;;;;4958851;28;20067;-71
2022/03/26 05:58:50;;;;;;;32.17;27.98;;;9.40;99.90;;;;;;4955626;28;20114;-71
2022/03/26 06:01:16;;;;;;;35.17;27.13;;;9.50;99.90;;;;;;4957298;28;20026;-71
2022/03/26 06:03:42;;;;;;;35.53;27.20;;;9.60;99.90;;;;;;4958330;28;20031;-71
2022/03/26 06:06:08;;;;;;;34.55;27.02;;;9.60;99.90;;;;;;4958041;28;20051;-71
2022/03/26 06:08:34;;;;;;;36.30;26.92;;;9.50;99.90;;;;;;4958351;28;20038;-71
2022/03/26 06:10:59;;;;;;;30.55;25.75;;;9.50;99.90;;;;;;4956746;28;20396;-71
2022/03/26 06:13:25;;;;;;;32.97;26.60;;;9.50;99.90;;;;;;4956173;28;20039;-71
2022/03/26 06:15:51;;;;;;;37.50;26.17;;;9.50;99.90;;;;;;4958022;28;20082;-72
2022/03/26 06:18:16;;;;;;;36.45;25.80;;;9.60;99.90;;;;;;4958104;28;20400;-71
2022/03/26 06:20:42;;;;;;;33.75;26.20;;;9.60;99.90;;;;;;4958251;28;20031;-72
2022/03/26 06:23:08;;;;;;;33.65;25.15;;;9.60;99.90;;;;;;4957719;28;20122;-71
2022/03/26 06:25:34;;;;;;;29.45;23.92;;;9.60;99.90;;;;;;4954561;29;20047;-71
2022/03/26 06:28:00;;;;;;;30.70;23.30;;;9.60;99.90;;;;;;4957870;28;20027;-71
2022/03/26 06:30:26;;;;;;;29.15;23.65;;;9.70;99.90;;;;;;4958029;28;20035;-71
2022/03/26 06:32:52;;;;;;;29.70;23.13;;;9.60;99.90;;;;;;4957771;28;20058;-71
2022/03/26 06:35:18;;;;;;;30.67;24.65;;;9.60;99.90;;;;;;4957830;28;20114;-71
2022/03/26 06:37:44;;;;;;;30.23;23.85;;;9.70;99.90;;;;;;4954578;28;20031;-71
2022/03/26 06:40:10;;;;;;;31.50;23.77;;;9.80;99.90;;;;;;4957097;28;20024;-71
2022/03/26 06:42:36;;;;;;;29.35;22.48;;;9.90;99.90;;;;;;4940267;29;20031;-72
2022/03/26 06:45:02;;;;;;;30.08;22.75;;;9.90;99.90;;;;;;4957887;28;20101;-72
2022/03/26 06:47:30;;;;;;;29.67;22.30;;;10.00;99.90;;;;;;4957743;28;20049;-71
2022/03/26 06:49:56;;;;;;;28.10;22.65;;;10.00;99.90;;;;;;4955719;28;20027;-71
2022/03/26 06:52:23;;;;;;;27.95;21.98;;;10.00;99.90;;;;;;4955798;28;20110;-71
2022/03/26 06:54:50;;;;;;;29.02;22.02;;;10.10;99.90;;;;;;4939583;29;20030;-71
2022/03/26 06:57:16;;;;;;;26.23;21.98;;;10.10;99.90;;;;;;4957176;28;20031;-71
2022/03/26 06:59:41;;;;;;;30.35;24.02;;;10.10;99.90;;;;;;4957461;28;20031;-71
2022/03/26 07:02:07;;;;;;;29.02;22.55;;;10.20;99.90;;;;;;4957101;28;20144;-71
2022/03/26 07:04:33;;;;;;;29.05;23.00;;;10.20;99.90;;;;;;4954272;28;20035;-71
2022/03/26 07:06:59;;;;;;;27.40;22.80;;;10.10;99.90;;;;;;4957275;28;20039;-71
2022/03/26 07:09:25;;;;;;;26.27;21.27;;;10.20;99.90;;;;;;4956822;28;20035;-71
2022/03/26 07:11:51;;;;;;;29.67;21.65;;;10.20;99.90;;;;;;4957025;28;20106;-71
2022/03/26 07:14:17;;;;;;;30.58;21.25;;;10.30;99.90;;;;;;4939962;28;20483;-71
2022/03/26 07:16:44;;;;;;;29.42;22.85;;;10.40;99.90;;;;;;4953845;28;20098;-71
2022/03/26 07:19:10;;;;;;;26.20;22.90;;;10.40;99.90;;;;;;4956753;28;20090;-74
2022/03/26 07:21:37;;;;;;;31.02;24.17;;;10.40;99.90;;;;;;4956891;28;20552;-84
2022/03/26 07:24:04;;;;;;;32.95;24.13;;;10.50;99.90;;;;;;4956913;28;20050;-79
2022/03/26 07:26:30;;;;;;;32.83;23.25;;;10.60;99.90;;;;;;4957042;28;20047;-79
2022/03/26 07:28:56;;;;;;;32.30;24.85;;;10.80;99.90;;;;;;4955152;28;20031;-79
2022/03/26 07:31:23;;;;;;;32.38;24.65;;;10.90;99.90;;;;;;4955031;28;20494;-80
2022/03/26 07:33:49;;;;;;;30.00;24.30;;;11.00;99.90;;;;;;4957070;28;20023;-81
2022/03/26 07:36:15;;;;;;;28.73;24.80;;;11.10;99.90;;;;;;4957183;28;20555;-79
2022/03/26 07:38:42;;;;;;;30.00;25.42;;;11.20;99.90;;;;;;4956543;28;20031;-80
2022/03/26 07:41:08;;;;;;;29.42;24.50;;;11.30;99.90;;;;;;4941472;28;20033;-80
2022/03/26 07:43:34;;;;;;;29.67;25.75;;;11.40;99.90;;;;;;4953973;28;20027;-79
2022/03/26 07:46:00;;;;;;;31.60;25.35;;;11.40;99.90;;;;;;4956634;28;20491;-80
2022/03/26 07:48:26;;;;;;;34.50;26.30;;;11.40;99.90;;;;;;4956968;28;20111;-79
2022/03/26 07:50:52;;;;;;;34.33;26.80;;;11.50;99.90;;;;;;4956252;28;20035;-78
2022/03/26 07:53:18;;;;;;;30.92;26.88;;;11.50;99.90;;;;;;4956981;28;20015;-79
2022/03/26 07:55:44;;;;;;;31.83;26.52;;;11.60;99.90;;;;;;4953320;28;20035;-79
2022/03/26 07:58:10;;;;;;;32.08;26.05;;;11.80;99.90;;;;;;4956650;28;20496;-80
2022/03/26 08:00:36;;;;;;;30.40;25.45;;;11.80;99.90;;;;;;4956409;28;20046;-80
2022/03/26 08:03:02;;;;;;;30.15;25.95;;;11.90;99.90;;;;;;4957126;28;20035;-79
2022/03/26 08:05:28;;;;;;;30.63;26.23;;;11.90;99.90;;;;;;4955944;28;20034;-80
2022/03/26 08:07:54;;;;;;;29.75;25.08;;;12.10;99.90;;;;;;4954813;28;20024;-79
2022/03/26 08:10:20;;;;;;;33.25;26.33;;;12.10;99.90;;;;;;4955139;28;20038;-79
2022/03/26 08:12:45;;;;;;;30.65;24.73;;;12.20;99.90;;;;;;4956629;28;20039;-79
2022/03/26 08:15:11;;;;;;;33.90;26.42;;;12.30;99.90;;;;;;4958405;28;20027;-79
2022/03/26 08:17:37;;;;;;;33.70;27.58;;;12.40;99.90;;;;;;4960800;28;20027;-80
2022/03/26 08:20:03;;;;;;;35.67;29.02;;;12.50;99.90;;;;;;4959070;28;20077;-80
2022/03/26 08:22:29;;;;;;;35.03;29.58;;;12.70;99.90;;;;;;4957485;28;20089;-79
2022/03/26 08:24:55;;;;;;;38.70;31.88;;;12.80;99.90;;;;;;4959911;28;20043;-79
2022/03/26 08:27:22;;;;;;;34.83;27.65;;;12.90;99.90;;;;;;4960056;28;20043;-73
2022/03/26 08:29:50;;;;;;;33.88;27.83;;;13.00;99.90;;;;;;4960155;28;20075;-73
2022/03/26 08:32:16;;;;;;;28.88;25.58;;;13.20;99.90;;;;;;4960008;28;20054;-73
2022/03/26 08:34:42;;;;;;;28.13;24.30;;;13.30;99.90;;;;;;4956189;28;20066;-73
2022/03/26 08:37:08;;;;;;;27.33;23.77;;;13.50;99.90;;;;;;4959684;28;20508;-72
2022/03/26 08:39:34;;;;;;;27.90;24.90;;;13.60;99.90;;;;;;4959139;28;20035;-75
2022/03/26 08:41:59;;;;;;;28.48;24.75;;;13.70;99.90;;;;;;4959420;28;20031;-73
2022/03/26 08:44:25;;;;;;;30.92;23.55;;;13.80;99.90;;;;;;4959283;28;20478;-72
2022/03/26 08:46:51;;;;;;;30.60;24.85;;;14.00;99.90;;;;;;4957902;28;20043;-73
2022/03/26 08:49:17;;;;;;;27.60;23.60;;;14.10;99.90;;;;;;4957394;28;20027;-73
2022/03/26 08:51:43;;;;;;;26.25;22.85;;;14.20;99.90;;;;;;4958823;28;20031;-72
2022/03/26 08:54:09;;;;;;;28.48;22.02;;;14.40;99.90;;;;;;4958320;28;20043;-73
2022/03/26 08:56:34;;;;;;;27.38;21.70;;;14.60;99.90;;;;;;4959131;28;20097;-72
2022/03/26 08:59:00;;;;;;;24.80;19.50;;;14.80;99.90;;;;;;4958463;28;20034;-73
2022/03/26 09:01:26;;;;;;;24.17;19.05;;;15.00;99.90;;;;;;4957217;28;20078;-73
2022/03/26 09:03:52;;;;;;;26.55;20.05;;;15.30;99.90;;;;;;4959405;28;20039;-74
2022/03/26 09:06:18;;;;;;;27.85;19.75;;;15.60;99.90;;;;;;4959108;28;20042;-74
2022/03/26 09:08:44;;;;;;;20.50;16.60;;;16.10;99.90;;;;;;4959293;28;20204;-76
2022/03/26 09:11:09;;;;;;;19.83;16.45;;;19.40;96.60;;;;;;4959322;28;20033;-73
2022/03/26 09:13:35;;;;;;;18.85;16.85;;;22.60;83.50;;;;;;4950758;29;20464;-72
2022/03/26 09:16:01;;;;;;;23.83;16.05;;;24.50;71.60;;;;;;4958330;28;20023;-72
2022/03/26 09:18:28;;;;;;;16.33;14.45;;;25.60;65.00;;;;;;4955129;28;20582;-73
2022/03/26 09:20:54;;;;;;;20.33;14.07;;;26.00;60.40;;;;;;4952425;28;20118;-73
2022/03/26 09:23:20;;;;;;;23.50;14.77;;;26.40;59.00;;;;;;4956528;28;20501;-73
2022/03/26 09:25:46;;;;;;;18.27;15.38;;;26.40;58.40;;;;;;4970884;28;20045;-73
2022/03/26 09:28:12;;;;;;;10.73;7.75;;;26.00;56.20;;;;;;4968154;28;20496;-73
2022/03/26 09:30:38;;;;;;;10.38;7.00;;;24.60;48.80;;;;;;4968265;28;20045;-73
2022/03/26 09:33:04;;;;;;;11.77;7.63;;;22.90;50.60;;;;;;4965352;28;20035;-73
2022/03/26 09:35:29;;;;;;;10.68;7.22;;;21.10;54.80;;;;;;4968358;28;20031;-73
2022/03/26 09:37:55;;;;;;;10.82;7.55;;;20.20;54.70;;;;;;4970044;28;20118;-73
2022/03/26 09:40:22;;;;;;;10.50;7.40;;;19.20;55.40;;;;;;4969908;28;20130;-73
2022/03/26 09:42:49;;;;;;;12.68;7.45;;;18.70;57.00;;;;;;4967791;28;20772;-73
2022/03/26 09:45:15;;;;;;;10.18;7.28;;;18.30;60.00;;;;;;4968033;28;20114;-74
2022/03/26 09:47:41;;;;;;;10.23;7.22;;;18.30;58.80;;;;;;4968224;28;20141;-73
2022/03/26 09:50:08;;;;;;;10.85;7.00;;;18.20;57.90;;;;;;4952783;28;20031;-73
2022/03/26 09:52:35;;;;;;;11.63;7.82;;;18.00;57.40;;;;;;4971352;28;20058;-72
2022/03/26 09:55:02;;;;;;;9.90;7.32;;;17.80;57.60;;;;;;4950280;28;20477;-72
2022/03/26 09:57:29;;;;;;;11.18;8.13;;;17.60;57.90;;;;;;4968076;28;20049;-72
2022/03/26 09:59:55;;;;;;;13.05;7.30;;;17.50;58.40;;;;;;4967911;28;20062;-72
2022/03/26 10:02:21;;;;;;;12.20;7.63;;;17.40;57.70;;;;;;4967408;28;20035;-72
2022/03/26 10:04:47;;;;;;;12.18;7.78;;;17.60;58.80;;;;;;4970431;28;20035;-72
2022/03/26 10:07:12;;;;;;;11.32;8.18;;;17.80;59.10;;;;;;4968566;28;20094;-72
2022/03/26 10:09:46;;;;;;;11.52;7.35;;;17.90;59.20;;;;;;4964061;28;20348;-72
2022/03/26 10:12:17;;;;;;;10.68;7.80;;;17.90;58.10;;;;;;4965120;28;20027;-73
2022/03/26 10:14:57;;;;;;;12.23;7.85;;;18.00;57.80;;;;;;4970272;28;20453;-72
2022/03/26 10:17:25;;;;;;;13.65;8.23;;;18.10;58.80;;;;;;4970148;28;20412;-72
2022/03/26 10:19:56;;;;;;;10.55;7.40;;;18.00;57.30;;;;;;4972922;28;20027;-72
2022/03/26 10:22:31;;;;;;;9.63;7.03;;;17.80;57.30;;;;;;4966677;28;20653;-73
2022/03/26 10:25:04;;;;;;;10.82;7.10;;;17.70;57.40;;;;;;4954351;28;20043;-73
2022/03/26 10:27:34;;;;;;;12.20;7.22;;;17.80;58.00;;;;;;4952379;28;20110;-72
2022/03/26 10:30:00;;;;;;;11.02;7.15;;;18.00;57.10;;;;;;4948278;29;20392;-72
2022/03/26 10:32:49;;;;;;;10.32;7.10;;;18.00;61.30;;;;;;4948043;29;20035;-72
2022/03/26 10:35:15;;;;;;;11.30;8.05;;;18.00;61.40;;;;;;4933467;29;20122;-72
2022/03/26 10:37:55;;;;;;;11.77;8.50;;;18.10;58.30;;;;;;4950781;28;20126;-72
2022/03/26 10:40:35;;;;;;;13.98;8.15;;;17.90;58.90;;;;;;4948093;29;20031;-72
2022/03/26 10:43:08;;;;;;;12.27;7.57;;;17.90;59.60;;;;;;4949080;29;20082;-72
2022/03/26 10:45:37;;;;;;;12.40;8.45;;;18.10;59.70;;;;;;4950676;29;20050;-72
2022/03/26 10:48:08;;;;;;;11.73;8.18;;;18.20;62.10;;;;;;4950906;29;20024;-72
2022/03/26 10:50:35;;;;;;;11.95;7.93;;;18.30;60.00;;;;;;4950626;29;20031;-72
2022/03/26 10:53:09;;;;;;;12.20;7.30;;;18.40;57.60;;;;;;4951958;29;20027;-72
2022/03/26 10:55:39;;;;;;;9.80;7.53;;;18.40;59.00;;;;;;4950157;29;20032;-72
2022/03/26 10:58:05;;;;;;;12.32;7.95;;;18.30;56.80;;;;;;4951884;29;20037;-74
2022/03/26 11:00:31;;;;;;;12.43;8.75;;;18.30;57.50;;;;;;4935519;29;20062;-72
2022/03/26 11:02:57;;;;;;;12.18;8.18;;;18.30;58.30;;;;;;4950200;29;20019;-73
2022/03/26 11:05:23;;;;;;;11.80;8.02;;;18.50;58.30;;;;;;4950430;29;20580;-73
2022/03/26 11:07:51;;;;;;;11.55;8.48;;;18.50;57.20;;;;;;4954249;28;20023;-76
2022/03/26 11:10:17;;;;;;;9.55;7.90;;;18.30;58.60;;;;;;4956358;28;20035;-73
2022/03/26 11:12:47;;;;;;;14.10;8.07;;;18.50;59.30;;;;;;4939737;29;20095;-72
2022/03/26 11:15:37;;;;;;;12.05;8.40;;;18.70;57.80;;;;;;4956654;28;20118;-73
2022/03/26 11:18:09;;;;;;;11.68;8.52;;;18.50;56.10;;;;;;4956457;28;20567;-72
2022/03/26 11:21:08;;;;;;;13.32;8.82;;;18.50;58.70;;;;;;4957069;28;20027;-72
2022/03/26 11:23:50;;;;;;;11.05;8.55;;;18.40;56.00;;;;;;4944694;28;20051;-72
2022/03/26 11:26:36;;;;;;;10.75;8.05;;;18.50;56.00;;;;;;4942755;28;20520;-71
2022/03/26 11:29:26;;;;;;;13.50;8.05;;;18.70;56.30;;;;;;4955777;28;20022;-72
2022/03/26 11:32:17;;;;;;;13.07;8.00;;;18.80;57.80;;;;;;4952737;28;20035;-71
2022/03/26 11:34:43;;;;;;;10.50;7.53;;;18.80;57.60;;;;;;4949744;28;20037;-71
2022/03/26 11:37:20;;;;;;;12.73;8.73;;;19.10;58.30;;;;;;4956618;28;20031;-71
2022/03/26 11:39:47;;;;;;;12.98;8.60;;;19.10;57.10;;;;;;4956877;28;20106;-72
2022/03/26 11:42:13;;;;;;;13.18;8.65;;;18.90;56.20;;;;;;4956116;28;20554;-71
2022/03/26 11:50:41;;;;;;;12.43;8.73;;;19.00;54.70;;;;;;4956758;28;20665;-72
2022/03/26 11:53:08;;;;;;;10.70;7.97;;;19.40;56.70;;;;;;4960376;28;20541;-72
2022/03/26 11:55:52;;;;;;;13.55;8.43;;;19.40;54.80;;;;;;4957122;28;20035;-72
2022/03/26 11:58:26;;;;;;;14.27;7.97;;;19.20;54.80;;;;;;4958492;28;20042;-78
2022/03/26 12:00:55;;;;;;;16.50;8.98;;;19.10;55.20;;;;;;4960565;28;20404;-73
2022/03/26 12:03:25;;;;;;;12.27;8.95;;;19.10;55.70;;;;;;4959998;28;20264;-72
2022/03/26 12:08:57;;;;;;;12.98;8.98;;;19.30;56.60;;;;;;4960261;28;20077;-71
2022/03/26 12:11:27;;;;;;;13.00;8.10;;;19.20;55.20;;;;;;4960324;28;20181;-72
2022/03/26 12:14:07;;;;;;;11.40;8.27;;;19.10;57.10;;;;;;4957634;28;20038;-76
2022/03/26 12:16:51;;;;;;;14.02;9.45;;;19.20;56.20;;;;;;4955576;29;20099;-73
2022/03/26 12:19:41;;;;;;;12.02;8.48;;;19.20;56.20;;;;;;4957873;28;20039;-72
2022/03/26 12:22:23;;;;;;;12.95;9.38;;;19.20;57.40;;;;;;4959806;28;20035;-72
2022/03/26 12:24:49;;;;;;;13.48;8.73;;;19.20;58.40;;;;;;4978666;28;20050;-75
2022/03/26 12:27:17;;;;;;;13.32;8.65;;;19.20;56.80;;;;;;4978739;28;20054;-72
2022/03/26 12:29:43;;;;;;;11.77;8.48;;;19.20;57.00;;;;;;4978317;28;20030;-72
2022/03/26 12:32:09;;;;;;;13.15;9.68;;;19.30;57.00;;;;;;4978377;28;20037;-72
2022/03/26 12:34:51;;;;;;;16.45;9.02;;;19.40;58.90;;;;;;4975402;28;20101;-72
2022/03/26 12:37:17;;;;;;;12.25;9.45;;;19.30;57.00;;;;;;4977140;28;20027;-74
2022/03/26 12:39:46;;;;;;;13.35;8.95;;;19.40;57.40;;;;;;4979072;28;20037;-74
2022/03/26 12:42:12;;;;;;;11.07;8.27;;;19.50;57.20;;;;;;4979063;28;20058;-74